createdAt,value
2017-12-23T00:01:53.324Z,97.39
2017-12-23T00:04:28.222Z,97.54
2017-12-23T00:07:03.362Z,97.62
2017-12-23T00:09:38.377Z,97.77
2017-12-23T00:12:13.285Z,97.82
2017-12-23T00:14:48.300Z,97.43
2017-12-23T00:17:23.191Z,97.34
2017-12-23T00:19:58.284Z,97.26
2017-12-23T00:22:33.191Z,97.47
2017-12-23T00:25:08.109Z,97.64
2017-12-23T00:27:42.924Z,97.72
2017-12-23T00:30:17.730Z,97.70
2017-12-23T00:32:52.562Z,97.39
2017-12-23T00:35:27.469Z,97.68
2017-12-23T00:38:02.422Z,97.77
2017-12-23T00:40:37.603Z,97.86
2017-12-23T00:43:12.701Z,97.93
2017-12-23T00:45:47.832Z,98.07
2017-12-23T00:48:23.065Z,97.88
2017-12-23T00:50:58.121Z,98.00
2017-12-23T00:53:33.241Z,98.17
2017-12-23T00:56:08.454Z,98.35
2017-12-23T00:58:43.552Z,98.44
2017-12-23T01:01:18.598Z,98.62
2017-12-23T01:03:53.651Z,98.85
2017-12-23T01:06:28.448Z,99.39
2017-12-23T01:09:03.144Z,99.86
2017-12-23T01:11:38.437Z,100.00
2017-12-23T01:14:13.149Z,100.00
2017-12-23T01:16:48.218Z,100.00
2017-12-23T01:19:23.029Z,100.00
2017-12-23T01:21:58.137Z,100.00
2017-12-23T01:24:33.242Z,100.00
2017-12-23T01:27:08.145Z,100.00
2017-12-23T01:29:43.053Z,100.00
2017-12-23T01:32:17.996Z,100.00
2017-12-23T01:34:53.033Z,100.00
2017-12-23T01:37:27.939Z,100.00
2017-12-23T01:40:02.849Z,100.00
2017-12-23T01:42:37.978Z,100.00
2017-12-23T01:45:12.820Z,100.00
2017-12-23T01:47:48.048Z,100.00
2017-12-23T01:50:23.172Z,100.00
2017-12-23T01:52:57.940Z,100.00
2017-12-23T01:55:32.990Z,100.00
2017-12-23T01:58:07.795Z,100.00
2017-12-23T02:00:42.901Z,100.00
2017-12-23T02:03:17.820Z,100.00
2017-12-23T02:05:52.957Z,100.00
2017-12-23T02:08:28.058Z,100.00
2017-12-23T02:11:03.084Z,100.00
2017-12-23T02:13:38.237Z,100.00
2017-12-23T02:16:13.344Z,100.00
2017-12-23T02:18:48.469Z,100.00
2017-12-23T02:21:23.421Z,100.00
2017-12-23T02:23:58.453Z,100.00
2017-12-23T02:29:30.030Z,100.00
2017-12-23T02:32:05.144Z,100.00
2017-12-23T02:34:40.195Z,100.00
2017-12-23T02:37:15.293Z,100.00
2017-12-23T02:39:50.563Z,100.00
2017-12-23T02:42:25.341Z,100.00
2017-12-23T02:44:59.833Z,100.00
2017-12-23T02:47:34.960Z,100.00
2017-12-23T02:50:10.092Z,100.00
2017-12-23T02:52:44.991Z,100.00
2017-12-23T02:55:19.973Z,100.00
2017-12-23T02:57:55.179Z,100.00
2017-12-23T03:00:30.452Z,100.00
2017-12-23T03:03:05.458Z,100.00
2017-12-23T03:05:40.342Z,100.00
2017-12-23T03:08:15.345Z,100.00
2017-12-23T03:10:50.724Z,100.00
2017-12-23T03:13:25.850Z,100.00
2017-12-23T03:16:00.960Z,100.00
2017-12-23T03:18:36.149Z,100.00
2017-12-23T03:21:11.136Z,100.00
2017-12-23T03:23:46.262Z,100.00
2017-12-23T03:26:21.365Z,100.00
2017-12-23T03:28:58.088Z,100.00
2017-12-23T03:31:32.893Z,100.00
2017-12-23T03:34:08.221Z,100.00
2017-12-23T03:36:43.119Z,100.00
2017-12-23T03:39:18.229Z,100.00
2017-12-23T03:41:52.995Z,100.00
2017-12-23T03:44:27.980Z,100.00
2017-12-23T03:47:03.105Z,100.00
2017-12-23T03:49:38.113Z,100.00
2017-12-23T03:52:13.291Z,100.00
2017-12-23T03:54:48.593Z,100.00
2017-12-23T03:57:24.529Z,100.00
2017-12-23T03:59:59.521Z,100.00
2017-12-23T04:02:34.549Z,100.00
2017-12-23T04:05:09.372Z,100.00
2017-12-23T04:07:44.645Z,100.00
2017-12-23T04:10:19.745Z,100.00
2017-12-23T04:12:54.664Z,100.00
2017-12-23T04:15:29.781Z,100.00
2017-12-23T04:18:04.343Z,100.00
2017-12-23T04:20:39.400Z,100.00
2017-12-23T04:23:14.379Z,100.00
2017-12-23T04:25:49.557Z,100.00
2017-12-23T04:28:24.556Z,100.00
2017-12-23T04:30:59.642Z,100.00
2017-12-23T04:33:34.641Z,100.00
2017-12-23T04:36:09.801Z,100.00
2017-12-23T04:38:44.816Z,100.00
2017-12-23T04:41:19.945Z,100.00
2017-12-23T04:43:54.960Z,100.00
2017-12-23T04:46:30.252Z,100.00
2017-12-23T04:49:05.560Z,100.00
2017-12-23T04:51:40.570Z,100.00
2017-12-23T04:54:15.361Z,100.00
2017-12-23T04:56:50.344Z,100.00
2017-12-23T04:59:25.561Z,100.00
2017-12-23T05:02:00.817Z,100.00
2017-12-23T05:04:36.103Z,100.00
2017-12-23T05:07:11.096Z,100.00
2017-12-23T05:09:45.872Z,100.00
2017-12-23T05:12:21.033Z,100.00
2017-12-23T05:14:56.106Z,100.00
2017-12-23T05:17:30.989Z,100.00
2017-12-23T05:20:05.992Z,100.00
2017-12-23T05:22:41.192Z,100.00
2017-12-23T05:25:16.372Z,100.00
2017-12-23T05:27:51.352Z,100.00
2017-12-23T05:30:26.371Z,100.00
2017-12-23T05:33:01.657Z,100.00
2017-12-23T05:35:36.748Z,100.00
2017-12-23T05:38:11.817Z,100.00
2017-12-23T05:40:46.841Z,100.00
2017-12-23T05:43:21.865Z,100.00
2017-12-23T05:45:56.887Z,100.00
2017-12-23T05:48:31.875Z,100.00
2017-12-23T05:51:06.834Z,100.00
2017-12-23T05:53:41.743Z,100.00
2017-12-23T05:56:16.620Z,100.00
2017-12-23T05:58:51.720Z,100.00
2017-12-23T06:01:26.736Z,100.00
2017-12-23T06:04:01.582Z,100.00
2017-12-23T06:06:36.484Z,100.00
2017-12-23T06:09:11.511Z,100.00
2017-12-23T06:11:46.288Z,100.00
2017-12-23T06:14:21.160Z,100.00
2017-12-23T06:16:56.383Z,100.00
2017-12-23T06:19:31.360Z,100.00
2017-12-23T06:22:06.450Z,100.00
2017-12-23T06:24:41.453Z,100.00
2017-12-23T06:27:16.494Z,100.00
2017-12-23T06:29:51.316Z,100.00
2017-12-23T06:32:26.356Z,100.00
2017-12-23T06:35:01.632Z,100.00
2017-12-23T06:37:36.646Z,100.00
2017-12-23T06:40:11.521Z,100.00
2017-12-23T06:42:46.496Z,100.00
2017-12-23T06:45:21.606Z,100.00
2017-12-23T06:47:56.603Z,100.00
2017-12-23T06:50:31.789Z,100.00
2017-12-23T06:53:07.064Z,100.00
2017-12-23T06:55:42.171Z,100.00
2017-12-23T06:58:16.978Z,100.00
2017-12-23T07:00:52.179Z,100.00
2017-12-23T07:03:27.396Z,100.00
2017-12-23T07:06:02.380Z,100.00
2017-12-23T07:08:37.381Z,100.00
2017-12-23T07:11:12.561Z,100.00
2017-12-23T07:13:47.667Z,100.00
2017-12-23T07:16:22.845Z,100.00
2017-12-23T07:18:58.116Z,100.00
2017-12-23T07:21:33.204Z,100.00
2017-12-23T07:24:08.223Z,100.00
2017-12-23T07:26:43.222Z,100.00
2017-12-23T07:29:17.670Z,100.00
2017-12-23T07:31:52.969Z,100.00
2017-12-23T07:34:28.086Z,100.00
2017-12-23T07:37:03.187Z,100.00
2017-12-23T07:39:38.321Z,100.00
2017-12-23T07:42:12.689Z,100.00
2017-12-23T07:44:47.798Z,100.00
2017-12-23T07:47:22.304Z,100.00
2017-12-23T07:49:57.534Z,100.00
2017-12-23T07:52:32.638Z,100.00
2017-12-23T07:55:07.675Z,100.00
2017-12-23T07:57:42.769Z,100.00
2017-12-23T08:00:18.089Z,100.00
2017-12-23T08:02:53.190Z,100.00
2017-12-23T08:05:28.278Z,100.00
2017-12-23T08:08:03.549Z,100.00
2017-12-23T08:10:38.520Z,100.00
2017-12-23T08:13:13.698Z,100.00
2017-12-23T08:15:48.704Z,100.00
2017-12-23T08:18:23.856Z,100.00
2017-12-23T08:20:58.741Z,100.00
2017-12-23T08:23:33.535Z,100.00
2017-12-23T08:26:08.529Z,100.00
2017-12-23T08:28:43.048Z,100.00
2017-12-23T08:31:18.302Z,100.00
2017-12-23T08:33:53.203Z,100.00
2017-12-23T08:36:28.332Z,100.00
2017-12-23T08:39:03.157Z,100.00
2017-12-23T08:41:37.532Z,100.00
2017-12-23T08:44:12.701Z,99.96
2017-12-23T08:46:47.698Z,99.47
2017-12-23T08:49:22.706Z,99.18
2017-12-23T08:51:57.098Z,98.84
2017-12-23T08:54:32.366Z,98.59
2017-12-23T08:57:07.276Z,98.77
2017-12-23T08:59:42.137Z,99.09
2017-12-23T09:02:17.169Z,99.44
2017-12-23T09:04:51.989Z,99.66
2017-12-23T09:07:27.141Z,99.87
2017-12-23T09:10:02.204Z,99.83
2017-12-23T09:12:37.269Z,99.85
2017-12-23T09:15:12.145Z,99.73
2017-12-23T09:17:47.167Z,99.67
2017-12-23T09:20:21.973Z,99.56
2017-12-23T09:22:57.148Z,99.45
2017-12-23T09:25:32.151Z,99.31
2017-12-23T09:28:07.066Z,99.65
2017-12-23T09:30:42.098Z,99.68
2017-12-23T09:33:17.094Z,99.57
2017-12-23T09:35:52.075Z,99.23
2017-12-23T09:38:26.850Z,99.28
2017-12-23T09:41:02.054Z,99.32
2017-12-23T09:43:36.880Z,99.27
2017-12-23T09:46:12.152Z,99.30
2017-12-23T09:48:47.032Z,99.49
2017-12-23T09:51:22.225Z,99.51
2017-12-23T09:53:57.242Z,99.46
2017-12-23T09:56:32.289Z,99.53
2017-12-23T09:59:07.261Z,99.58
2017-12-23T10:01:42.082Z,99.60
2017-12-23T10:04:17.097Z,99.69
2017-12-23T10:06:52.185Z,99.60
2017-12-23T10:09:27.430Z,99.56
2017-12-23T10:12:02.216Z,99.51
2017-12-23T10:14:37.026Z,99.29
2017-12-23T10:17:11.427Z,99.16
2017-12-23T10:19:46.556Z,99.08
2017-12-23T10:22:21.633Z,99.08
2017-12-23T10:24:56.938Z,99.05
2017-12-23T10:27:32.019Z,98.96
2017-12-23T10:30:06.640Z,99.04
2017-12-23T10:32:49.812Z,98.83
2017-12-23T10:35:24.478Z,98.72
2017-12-23T10:37:59.548Z,98.68
2017-12-23T10:40:34.505Z,98.57
2017-12-23T10:43:09.580Z,98.49
2017-12-23T10:45:44.721Z,98.48
2017-12-23T10:48:19.816Z,98.34
2017-12-23T10:50:54.802Z,98.29
2017-12-23T10:53:30.004Z,98.31
2017-12-23T10:56:05.005Z,98.18
2017-12-23T10:58:39.881Z,98.01
2017-12-23T11:01:14.790Z,97.78
2017-12-23T11:03:49.956Z,97.60
2017-12-23T11:06:25.187Z,97.46
2017-12-23T11:09:00.094Z,97.34
2017-12-23T11:11:35.179Z,97.30
2017-12-23T11:14:10.287Z,97.23
2017-12-23T11:16:45.381Z,97.24
2017-12-23T11:19:20.401Z,97.17
2017-12-23T11:21:55.141Z,97.13
2017-12-23T11:24:30.238Z,97.20
2017-12-23T11:27:05.340Z,97.20
2017-12-23T11:29:40.094Z,97.09
2017-12-23T11:32:15.372Z,97.13
2017-12-23T11:34:50.469Z,97.12
2017-12-23T11:37:25.528Z,96.97
2017-12-23T11:40:00.303Z,97.04
2017-12-23T11:42:35.313Z,97.06
2017-12-23T11:45:10.192Z,97.02
2017-12-23T11:47:45.097Z,96.98
2017-12-23T11:50:20.066Z,96.85
2017-12-23T11:52:55.085Z,96.79
2017-12-23T11:55:30.000Z,96.67
2017-12-23T11:58:05.285Z,96.65
2017-12-23T12:00:40.180Z,96.75
2017-12-23T12:03:15.350Z,96.76
2017-12-23T12:05:50.163Z,96.75
2017-12-23T12:08:25.496Z,96.50
2017-12-23T12:11:00.582Z,96.30
2017-12-23T12:13:35.396Z,96.29
2017-12-23T12:16:10.386Z,95.96
2017-12-23T12:18:45.487Z,95.93
2017-12-23T12:21:20.361Z,95.82
2017-12-23T12:23:55.584Z,95.37
2017-12-23T12:26:30.565Z,95.03
2017-12-23T12:29:05.427Z,94.93
2017-12-23T12:31:40.732Z,94.77
2017-12-23T12:34:15.621Z,94.74
2017-12-23T12:36:50.429Z,94.83
2017-12-23T12:39:25.731Z,94.67
2017-12-23T12:42:00.756Z,94.27
2017-12-23T12:44:35.761Z,94.30
2017-12-23T12:47:10.944Z,94.25
2017-12-23T12:49:45.948Z,94.20
2017-12-23T12:52:21.016Z,94.29
2017-12-23T12:54:56.131Z,94.30
2017-12-23T12:57:31.200Z,94.33
2017-12-23T13:00:06.138Z,94.31
2017-12-23T13:02:41.032Z,94.37
2017-12-23T13:05:16.100Z,94.54
2017-12-23T13:07:51.093Z,94.54
2017-12-23T13:10:26.124Z,94.40
2017-12-23T13:13:01.001Z,94.48
2017-12-23T13:15:35.897Z,94.33
2017-12-23T13:18:10.791Z,94.42
2017-12-23T13:20:45.888Z,94.38
2017-12-23T13:23:20.717Z,94.32
2017-12-23T13:25:55.621Z,94.30
2017-12-23T13:28:30.594Z,94.27
2017-12-23T13:31:05.503Z,94.38
2017-12-23T13:33:40.664Z,94.47
2017-12-23T13:36:15.960Z,94.60
2017-12-23T13:38:51.165Z,94.55
2017-12-23T13:41:26.064Z,94.69
2017-12-23T13:44:01.045Z,94.65
2017-12-23T13:46:36.016Z,94.44
2017-12-23T13:49:11.088Z,94.22
2017-12-23T13:51:46.213Z,94.18
2017-12-23T13:54:21.122Z,94.36
2017-12-23T13:56:56.041Z,94.36
2017-12-23T13:59:31.266Z,94.18
2017-12-23T14:02:06.221Z,94.29
2017-12-23T14:04:41.236Z,94.38
2017-12-23T14:07:16.145Z,94.58
2017-12-23T14:09:51.125Z,94.57
2017-12-23T14:12:26.246Z,94.48
2017-12-23T14:15:01.249Z,94.41
2017-12-23T14:17:36.072Z,94.44
2017-12-23T14:20:11.289Z,94.36
2017-12-23T14:22:46.499Z,94.34
2017-12-23T14:25:21.411Z,94.45
2017-12-23T14:27:56.505Z,94.29
2017-12-23T14:30:31.688Z,94.27
2017-12-23T14:33:06.698Z,94.28
2017-12-23T14:35:41.577Z,94.22
2017-12-23T14:38:16.554Z,94.25
2017-12-23T14:40:51.762Z,94.41
2017-12-23T14:43:26.898Z,94.56
2017-12-23T14:46:02.525Z,94.66
2017-12-23T14:48:37.153Z,94.57
2017-12-23T14:51:12.050Z,94.66
2017-12-23T14:53:47.309Z,94.67
2017-12-23T14:59:07.289Z,94.79
2017-12-23T15:01:42.390Z,94.79
2017-12-23T15:04:17.675Z,94.83
2017-12-23T15:06:52.864Z,94.83
2017-12-23T15:09:27.877Z,95.02
2017-12-23T15:12:02.903Z,95.15
2017-12-23T15:14:37.815Z,95.15
2017-12-23T15:17:12.911Z,95.26
2017-12-23T15:19:47.984Z,95.33
2017-12-23T15:22:22.896Z,95.19
2017-12-23T15:24:57.667Z,95.14
2017-12-23T15:27:32.713Z,95.23
2017-12-23T15:30:07.596Z,95.29
2017-12-23T15:32:42.573Z,95.41
2017-12-23T15:35:17.882Z,95.65
2017-12-23T15:37:52.850Z,95.67
2017-12-23T15:40:27.756Z,95.56
2017-12-23T15:43:02.727Z,95.68
2017-12-23T15:45:37.921Z,95.94
2017-12-23T15:48:13.105Z,96.00
2017-12-23T15:50:48.193Z,95.88
2017-12-23T15:53:23.135Z,96.07
2017-12-23T15:55:58.309Z,96.09
2017-12-23T15:58:33.363Z,96.29
2017-12-23T16:01:08.403Z,96.42
2017-12-23T16:03:43.304Z,96.52
2017-12-23T16:06:18.267Z,96.53
2017-12-23T16:08:53.373Z,96.54
2017-12-23T16:11:28.453Z,96.59
2017-12-23T16:14:03.345Z,96.38
2017-12-23T16:16:38.438Z,96.40
2017-12-23T16:19:13.553Z,96.35
2017-12-23T16:21:48.476Z,96.24
2017-12-23T16:24:23.461Z,96.04
2017-12-23T16:26:57.841Z,95.89
2017-12-23T16:29:32.940Z,95.80
2017-12-23T16:32:07.915Z,96.00
2017-12-23T16:34:42.995Z,96.22
2017-12-23T16:37:17.887Z,96.31
2017-12-23T16:39:53.096Z,96.15
2017-12-23T16:42:28.160Z,96.14
2017-12-23T16:45:03.244Z,96.45
2017-12-23T16:47:38.162Z,96.73
2017-12-23T16:50:13.244Z,96.91
2017-12-23T16:52:48.080Z,96.96
2017-12-23T16:55:23.165Z,96.95
2017-12-23T16:57:58.164Z,97.05
2017-12-23T17:00:33.144Z,97.23
2017-12-23T17:03:08.143Z,97.51
2017-12-23T17:05:43.030Z,97.57
2017-12-23T17:08:18.095Z,97.66
2017-12-23T17:10:53.088Z,97.73
2017-12-23T17:13:28.167Z,97.85
2017-12-23T17:16:03.175Z,98.02
2017-12-23T17:18:37.842Z,98.11
2017-12-23T17:21:12.599Z,98.32
2017-12-23T17:23:47.892Z,98.29
2017-12-23T17:26:22.962Z,98.25
2017-12-23T17:29:08.953Z,98.32
2017-12-23T17:31:43.681Z,98.40
2017-12-23T17:34:18.805Z,98.46
2017-12-23T17:36:53.992Z,98.36
2017-12-23T17:39:29.065Z,98.06
2017-12-23T17:42:04.056Z,97.98
2017-12-23T17:44:39.249Z,97.96
2017-12-23T17:47:14.262Z,97.97
2017-12-23T17:49:49.138Z,97.89
2017-12-23T17:52:24.085Z,97.83
2017-12-23T17:54:59.376Z,97.73
2017-12-23T17:57:34.473Z,97.70
2017-12-23T18:00:09.440Z,97.54
2017-12-23T18:02:44.505Z,97.51
2017-12-23T18:05:19.273Z,97.45
2017-12-23T18:07:54.185Z,97.40
2017-12-23T18:10:29.457Z,97.38
2017-12-23T18:13:04.257Z,97.50
2017-12-23T18:15:38.700Z,97.50
2017-12-23T18:18:13.900Z,97.53
2017-12-23T18:20:49.093Z,97.47
2017-12-23T18:23:24.090Z,97.56
2017-12-23T18:25:59.073Z,97.56
2017-12-23T18:28:34.150Z,97.64
2017-12-23T18:31:09.144Z,97.69
2017-12-23T18:33:44.125Z,97.49
2017-12-23T18:36:19.110Z,97.51
2017-12-23T18:38:54.313Z,97.58
2017-12-23T18:41:29.316Z,97.55
2017-12-23T18:44:04.593Z,97.49
2017-12-23T18:46:39.511Z,97.35
2017-12-23T18:49:14.394Z,97.32
2017-12-23T18:51:49.145Z,97.31
2017-12-23T18:54:24.360Z,97.03
2017-12-23T18:56:59.338Z,96.97
2017-12-23T18:59:34.337Z,96.91
2017-12-23T19:02:09.573Z,96.78
2017-12-23T19:04:44.570Z,96.85
2017-12-23T19:07:19.772Z,96.90
2017-12-23T19:09:55.060Z,96.96
2017-12-23T19:12:29.986Z,97.04
2017-12-23T19:15:05.209Z,97.12
2017-12-23T19:17:40.117Z,97.16
2017-12-23T19:20:14.499Z,97.13
2017-12-23T19:22:49.569Z,97.09
2017-12-23T19:25:24.844Z,97.19
2017-12-23T19:27:59.876Z,97.40
2017-12-23T19:30:34.997Z,97.49
2017-12-23T19:33:09.909Z,97.62
2017-12-23T19:35:44.976Z,97.65
2017-12-23T19:38:19.980Z,97.70
2017-12-23T19:40:55.260Z,97.82
2017-12-23T19:43:30.364Z,97.83
2017-12-23T19:46:05.444Z,97.85
2017-12-23T19:48:40.503Z,97.97
2017-12-23T19:51:15.474Z,98.05
2017-12-23T19:53:50.464Z,98.05
2017-12-23T19:56:25.347Z,98.04
2017-12-23T19:59:00.222Z,98.09
2017-12-23T20:01:35.042Z,98.11
2017-12-23T20:04:10.047Z,98.37
2017-12-23T20:06:45.204Z,98.62
2017-12-23T20:09:20.494Z,98.49
2017-12-23T20:11:55.272Z,98.62
2017-12-23T20:14:30.369Z,98.93
2017-12-23T20:17:05.487Z,99.30
2017-12-23T20:19:40.279Z,99.41
2017-12-23T20:22:15.309Z,99.37
2017-12-23T20:24:50.415Z,99.46
2017-12-23T20:27:25.393Z,99.53
2017-12-23T20:30:00.419Z,99.77
2017-12-23T20:32:35.392Z,99.92
2017-12-23T20:35:10.378Z,99.97
2017-12-23T20:37:45.358Z,99.94
2017-12-23T20:40:20.363Z,99.90
2017-12-23T20:42:55.266Z,99.69
2017-12-23T20:45:30.384Z,99.63
2017-12-23T20:48:05.546Z,99.46
2017-12-23T20:50:40.440Z,99.45
2017-12-23T20:53:15.268Z,99.58
2017-12-23T20:55:50.251Z,99.73
2017-12-23T20:58:25.426Z,99.80
2017-12-23T21:01:00.308Z,99.88
2017-12-23T21:03:35.290Z,99.92
2017-12-23T21:06:10.529Z,99.84
2017-12-23T21:08:45.722Z,99.84
2017-12-23T21:11:20.919Z,99.81
2017-12-23T21:13:55.748Z,99.87
2017-12-23T21:16:30.750Z,99.83
2017-12-23T21:19:05.982Z,99.89
2017-12-23T21:21:40.716Z,99.94
2017-12-23T21:24:15.144Z,99.89
2017-12-23T21:26:50.084Z,99.88
2017-12-23T21:29:25.203Z,99.99
2017-12-23T21:32:00.334Z,100.00
2017-12-23T21:34:35.322Z,100.00
2017-12-23T21:37:10.458Z,100.00
2017-12-23T21:39:45.598Z,100.00
2017-12-23T21:42:20.401Z,100.00
2017-12-23T21:44:55.425Z,100.00
2017-12-23T21:47:30.441Z,100.00
2017-12-23T21:50:05.469Z,100.00
2017-12-23T21:52:40.704Z,100.00
2017-12-23T21:55:15.981Z,99.82
2017-12-23T21:57:51.050Z,99.71
2017-12-23T22:00:26.274Z,99.64
2017-12-23T22:03:01.177Z,99.42
2017-12-23T22:05:36.197Z,99.29
2017-12-23T22:08:11.214Z,99.23
2017-12-23T22:10:46.234Z,99.06
2017-12-23T22:13:21.214Z,99.04
2017-12-23T22:15:56.353Z,99.13
2017-12-23T22:18:31.548Z,99.17
2017-12-23T22:21:06.649Z,99.00
2017-12-23T22:23:41.854Z,99.03
2017-12-23T22:26:17.002Z,99.03
2017-12-23T22:28:51.813Z,98.83
2017-12-23T22:31:26.756Z,98.87
2017-12-23T22:34:01.721Z,98.86
2017-12-23T22:36:36.808Z,98.79
2017-12-23T22:39:12.088Z,98.94
2017-12-23T22:41:47.089Z,99.05
2017-12-23T22:44:22.006Z,99.15
2017-12-23T22:46:57.495Z,98.93
2017-12-23T22:49:32.387Z,98.72
2017-12-23T22:52:07.322Z,98.55
2017-12-23T22:54:42.321Z,98.12
2017-12-23T22:57:17.442Z,97.90
2017-12-23T22:59:52.461Z,97.29
2017-12-23T23:02:27.465Z,96.54
2017-12-23T23:05:02.369Z,96.26
2017-12-23T23:07:37.344Z,95.91
2017-12-23T23:10:12.445Z,95.61
2017-12-23T23:12:47.429Z,95.72
2017-12-23T23:15:22.325Z,95.58
2017-12-23T23:17:57.157Z,95.53
2017-12-23T23:20:32.240Z,95.33
2017-12-23T23:23:07.246Z,95.35
2017-12-23T23:25:42.269Z,95.31
2017-12-23T23:28:17.186Z,95.27
2017-12-23T23:30:52.298Z,95.06
2017-12-23T23:33:27.372Z,95.04
2017-12-23T23:36:02.586Z,95.14
2017-12-23T23:38:37.514Z,95.32
2017-12-23T23:41:12.709Z,95.29
2017-12-23T23:43:47.793Z,95.29
2017-12-23T23:46:22.794Z,95.32
2017-12-23T23:48:57.898Z,95.29
2017-12-23T23:51:32.892Z,95.28
2017-12-23T23:54:07.498Z,95.34
2017-12-23T23:56:42.624Z,95.26
2017-12-23T23:59:17.965Z,95.09
